Aydin, Turkey
Current Conditions -  °F | °C
As of 11:20 PM on Monday 24 Nov 2014 (Local Time) from LTFE Reporting Station
Clear Clear  
Wind Chill: 48°   Ceiling: Unl
Heat Index: 48°   Visibility: 6mi
Dew Point: 39°   Wind: 2mph
Humidity: 71%   Direction: NA
Pressure: 30.03"   Gusts: NA
Location:  37.86°N, 27.84°E
Report Text: LTFE 242020Z VRB02KT CAVOK 09/04 Q1017 NOSIG
Loading
Personal Weather Stations






























Interactive Weather Map New forecast layout! Learn more

10-Day Weather Forecast

Advertisements
Track Severe Weather on mobile